sensor_id;sensor_type;location;lat;lon;timestamp;pressure;altitude;pressure_sealevel;temperature;humidity
21803;BME280;18591;47.080;22.214;2022-10-18T00:01:46;101073.28;;;15.77;53.92
21803;BME280;18591;47.080;22.214;2022-10-18T00:03:48;101077.81;;;15.76;54.05
21803;BME280;18591;47.080;22.214;2022-10-18T00:05:50;101068.97;;;15.71;54.29
21803;BME280;18591;47.080;22.214;2022-10-18T00:07:52;101063.63;;;15.70;54.01
21803;BME280;18591;47.080;22.214;2022-10-18T00:09:55;101062.72;;;15.69;54.11
21803;BME280;18591;47.080;22.214;2022-10-18T00:11:57;101064.59;;;15.67;54.30
21803;BME280;18591;47.080;22.214;2022-10-18T00:13:59;101062.81;;;15.66;53.85
21803;BME280;18591;47.080;22.214;2022-10-18T00:16:03;101060.16;;;15.64;54.13
21803;BME280;18591;47.080;22.214;2022-10-18T00:18:05;101060.19;;;15.63;53.77
21803;BME280;18591;47.080;22.214;2022-10-18T00:20:08;101057.53;;;15.61;54.01
21803;BME280;18591;47.080;22.214;2022-10-18T00:22:10;101054.06;;;15.58;54.09
21803;BME280;18591;47.080;22.214;2022-10-18T00:24:12;101055.00;;;15.57;54.11
21803;BME280;18591;47.080;22.214;2022-10-18T00:26:17;101051.50;;;15.53;53.88
21803;BME280;18591;47.080;22.214;2022-10-18T00:28:45;101045.50;;;15.43;54.25
21803;BME280;18591;47.080;22.214;2022-10-18T00:30:47;101048.78;;;15.53;53.79
21803;BME280;18591;47.080;22.214;2022-10-18T00:32:54;101049.84;;;15.49;53.98
21803;BME280;18591;47.080;22.214;2022-10-18T00:34:56;101042.66;;;15.48;53.83
21803;BME280;18591;47.080;22.214;2022-10-18T00:36:58;101044.44;;;15.49;53.86
21803;BME280;18591;47.080;22.214;2022-10-18T00:39:02;101042.72;;;15.46;53.87
21803;BME280;18591;47.080;22.214;2022-10-18T00:41:06;101031.88;;;15.46;53.99
21803;BME280;18591;47.080;22.214;2022-10-18T00:43:14;101036.66;;;15.38;54.31
21803;BME280;18591;47.080;22.214;2022-10-18T00:45:18;101033.88;;;15.41;54.26
21803;BME280;18591;47.080;22.214;2022-10-18T00:47:20;101028.50;;;15.40;53.93
21803;BME280;18591;47.080;22.214;2022-10-18T00:49:26;101034.88;;;15.39;54.42
21803;BME280;18591;47.080;22.214;2022-10-18T00:51:34;101024.06;;;15.37;54.49
21803;BME280;18591;47.080;22.214;2022-10-18T00:53:37;101029.44;;;15.39;54.38
21803;BME280;18591;47.080;22.214;2022-10-18T00:55:41;101024.19;;;15.34;54.40
21803;BME280;18591;47.080;22.214;2022-10-18T00:57:43;101028.59;;;15.37;54.12
21803;BME280;18591;47.080;22.214;2022-10-18T00:59:46;101023.31;;;15.34;54.46
21803;BME280;18591;47.080;22.214;2022-10-18T01:01:48;101022.47;;;15.32;54.62
21803;BME280;18591;47.080;22.214;2022-10-18T01:03:51;101026.09;;;15.31;54.78
21803;BME280;18591;47.080;22.214;2022-10-18T01:05:53;101023.50;;;15.28;54.75
21803;BME280;18591;47.080;22.214;2022-10-18T01:15:26;101001.47;;;15.12;55.42
21803;BME280;18591;47.080;22.214;2022-10-18T01:20:04;101011.16;;;15.19;55.08
21803;BME280;18591;47.080;22.214;2022-10-18T01:22:17;101013.13;;;15.14;55.82
21803;BME280;18591;47.080;22.214;2022-10-18T01:31:21;101003.22;;;15.13;55.40
21803;BME280;18591;47.080;22.214;2022-10-18T01:33:25;101003.16;;;15.16;55.27
21803;BME280;18591;47.080;22.214;2022-10-18T01:35:33;101005.06;;;15.12;55.11
21803;BME280;18591;47.080;22.214;2022-10-18T01:37:37;101004.22;;;15.10;54.85
21803;BME280;18591;47.080;22.214;2022-10-18T01:39:44;100998.88;;;15.09;54.98
21803;BME280;18591;47.080;22.214;2022-10-18T01:41:48;101006.19;;;15.05;54.70
21803;BME280;18591;47.080;22.214;2022-10-18T01:43:55;101007.13;;;15.04;54.95
21803;BME280;18591;47.080;22.214;2022-10-18T01:45:59;101000.78;;;15.05;55.22
21803;BME280;18591;47.080;22.214;2022-10-18T01:48:01;100999.97;;;15.03;54.77
21803;BME280;18591;47.080;22.214;2022-10-18T01:50:05;101006.25;;;15.03;54.92
21803;BME280;18591;47.080;22.214;2022-10-18T01:52:12;101006.31;;;15.02;55.18
21803;BME280;18591;47.080;22.214;2022-10-18T01:54:21;101002.75;;;15.00;54.96
21803;BME280;18591;47.080;22.214;2022-10-18T01:58:45;101004.66;;;14.98;55.33
21803;BME280;18591;47.080;22.214;2022-10-18T02:00:59;101000.38;;;14.91;55.19
21803;BME280;18591;47.080;22.214;2022-10-18T02:09:47;100996.97;;;14.84;55.39
21803;BME280;18591;47.080;22.214;2022-10-18T02:11:53;100988.75;;;14.87;55.22
21803;BME280;18591;47.080;22.214;2022-10-18T02:14:01;100996.97;;;14.84;55.46
21803;BME280;18591;47.080;22.214;2022-10-18T02:16:09;100988.06;;;14.80;55.78
21803;BME280;18591;47.080;22.214;2022-10-18T02:18:19;100992.69;;;14.77;55.64
21803;BME280;18591;47.080;22.214;2022-10-18T02:20:24;100989.00;;;14.79;55.53
21803;BME280;18591;47.080;22.214;2022-10-18T02:22:31;100995.34;;;14.78;55.93
21803;BME280;18591;47.080;22.214;2022-10-18T02:24:38;100994.59;;;14.75;56.13
21803;BME280;18591;47.080;22.214;2022-10-18T02:26:42;100993.63;;;14.76;55.98
21803;BME280;18591;47.080;22.214;2022-10-18T02:28:45;100993.59;;;14.77;55.97
21803;BME280;18591;47.080;22.214;2022-10-18T02:33:16;100995.59;;;14.71;55.86
21803;BME280;18591;47.080;22.214;2022-10-18T02:35:24;100989.25;;;14.72;55.66
21803;BME280;18591;47.080;22.214;2022-10-18T02:37:31;101000.13;;;14.70;55.97
21803;BME280;18591;47.080;22.214;2022-10-18T02:39:42;100997.53;;;14.67;55.99
21803;BME280;18591;47.080;22.214;2022-10-18T02:41:45;100992.91;;;14.71;56.03
21803;BME280;18591;47.080;22.214;2022-10-18T02:43:48;100995.59;;;14.71;56.04
21803;BME280;18591;47.080;22.214;2022-10-18T02:45:50;100995.75;;;14.66;55.79
21803;BME280;18591;47.080;22.214;2022-10-18T02:47:52;100984.88;;;14.68;55.90
21803;BME280;18591;47.080;22.214;2022-10-18T02:49:57;100988.44;;;14.70;55.90
21803;BME280;18591;47.080;22.214;2022-10-18T02:51:58;100987.75;;;14.62;56.08
21803;BME280;18591;47.080;22.214;2022-10-18T02:54:01;100986.00;;;14.61;56.09
21803;BME280;18591;47.080;22.214;2022-10-18T02:56:03;100982.44;;;14.60;55.76
21803;BME280;18591;47.080;22.214;2022-10-18T02:58:05;100982.44;;;14.60;55.62
21803;BME280;18591;47.080;22.214;2022-10-18T03:00:07;100986.09;;;14.57;55.91
21803;BME280;18591;47.080;22.214;2022-10-18T03:02:10;100983.44;;;14.56;55.75
21803;BME280;18591;47.080;22.214;2022-10-18T03:04:11;100989.81;;;14.55;55.95
21803;BME280;18591;47.080;22.214;2022-10-18T03:06:14;100982.63;;;14.52;55.74
21803;BME280;18591;47.080;22.214;2022-10-18T03:08:16;100986.25;;;14.51;55.51
21803;BME280;18591;47.080;22.214;2022-10-18T03:10:19;100981.81;;;14.49;55.96
21803;BME280;18591;47.080;22.214;2022-10-18T03:12:20;100985.47;;;14.48;55.91
21803;BME280;18591;47.080;22.214;2022-10-18T03:14:22;100983.72;;;14.47;55.73
21803;BME280;18591;47.080;22.214;2022-10-18T03:16:25;100984.63;;;14.46;55.82
21803;BME280;18591;47.080;22.214;2022-10-18T03:18:26;100990.09;;;14.44;55.92
21803;BME280;18591;47.080;22.214;2022-10-18T03:20:29;100987.50;;;14.41;55.81
21803;BME280;18591;47.080;22.214;2022-10-18T03:22:31;100988.41;;;14.40;55.91
21803;BME280;18591;47.080;22.214;2022-10-18T03:24:33;100985.81;;;14.37;55.95
21803;BME280;18591;47.080;22.214;2022-10-18T03:26:35;100983.09;;;14.37;56.07
21803;BME280;18591;47.080;22.214;2022-10-18T03:28:37;100980.44;;;14.35;56.32
21803;BME280;18591;47.080;22.214;2022-10-18T03:30:39;100985.84;;;14.35;56.33
21803;BME280;18591;47.080;22.214;2022-10-18T03:32:41;100982.25;;;14.35;56.22
21803;BME280;18591;47.080;22.214;2022-10-18T03:34:43;100989.53;;;14.33;56.69
21803;BME280;18591;47.080;22.214;2022-10-18T03:36:46;100992.22;;;14.33;56.78
21803;BME280;18591;47.080;22.214;2022-10-18T03:38:47;100990.47;;;14.32;56.73
21803;BME280;18591;47.080;22.214;2022-10-18T03:40:50;100986.94;;;14.30;56.45
21803;BME280;18591;47.080;22.214;2022-10-18T03:42:52;100989.72;;;14.27;56.37
21803;BME280;18591;47.080;22.214;2022-10-18T03:44:54;100996.09;;;14.26;56.30
21803;BME280;18591;47.080;22.214;2022-10-18T03:46:55;100994.25;;;14.26;56.29
21803;BME280;18591;47.080;22.214;2022-10-18T03:48:57;100994.25;;;14.26;56.62
21803;BME280;18591;47.080;22.214;2022-10-18T03:50:59;100997.88;;;14.25;56.48
21803;BME280;18591;47.080;22.214;2022-10-18T03:53:01;101005.31;;;14.19;56.41
21803;BME280;18591;47.080;22.214;2022-10-18T03:55:04;100999.91;;;14.19;56.19
21803;BME280;18591;47.080;22.214;2022-10-18T03:57:06;101000.16;;;14.09;56.78
21803;BME280;18591;47.080;22.214;2022-10-18T03:59:08;100997.28;;;14.15;56.21
21803;BME280;18591;47.080;22.214;2022-10-18T04:01:10;100993.59;;;14.18;56.24
21803;BME280;18591;47.080;22.214;2022-10-18T04:03:12;100994.50;;;14.19;56.43
21803;BME280;18591;47.080;22.214;2022-10-18T04:05:14;100997.34;;;14.12;56.37
21803;BME280;18591;47.080;22.214;2022-10-18T04:07:15;101000.06;;;14.12;56.12
21803;BME280;18591;47.080;22.214;2022-10-18T04:09:17;100997.41;;;14.11;56.28
21803;BME280;18591;47.080;22.214;2022-10-18T04:11:20;100992.13;;;14.06;56.49
21803;BME280;18591;47.080;22.214;2022-10-18T04:13:22;100999.28;;;14.09;56.70
21803;BME280;18591;47.080;22.214;2022-10-18T04:15:24;100999.41;;;14.04;56.81
21803;BME280;18591;47.080;22.214;2022-10-18T04:17:26;101000.56;;;13.96;57.74
21803;BME280;18591;47.080;22.214;2022-10-18T04:19:28;101002.41;;;13.93;57.37
21803;BME280;18591;47.080;22.214;2022-10-18T04:21:30;100999.59;;;13.98;57.55
21803;BME280;18591;47.080;22.214;2022-10-18T04:27:19;100998.78;;;13.94;57.34
21803;BME280;18591;47.080;22.214;2022-10-18T04:29:21;100995.19;;;13.94;57.04
21803;BME280;18591;47.080;22.214;2022-10-18T04:35:10;100989.88;;;13.91;57.43
21803;BME280;18591;47.080;22.214;2022-10-18T04:37:12;100989.84;;;13.92;57.28
21803;BME280;18591;47.080;22.214;2022-10-18T04:39:14;100984.50;;;13.89;57.31
21803;BME280;18591;47.080;22.214;2022-10-18T04:41:16;100989.03;;;13.89;56.81
21803;BME280;18591;47.080;22.214;2022-10-18T04:43:19;100984.56;;;13.88;56.96
21803;BME280;18591;47.080;22.214;2022-10-18T04:45:21;100980.25;;;13.82;56.80
21803;BME280;18591;47.080;22.214;2022-10-18T04:47:23;100978.34;;;13.84;56.71
21803;BME280;18591;47.080;22.214;2022-10-18T04:49:25;100984.72;;;13.82;57.09
21803;BME280;18591;47.080;22.214;2022-10-18T04:51:28;100982.13;;;13.79;57.37
21803;BME280;18591;47.080;22.214;2022-10-18T04:53:30;100983.84;;;13.81;57.25
21803;BME280;18591;47.080;22.214;2022-10-18T04:55:32;100982.09;;;13.80;57.20
21803;BME280;18591;47.080;22.214;2022-10-18T04:57:34;100974.00;;;13.80;57.07
21803;BME280;18591;47.080;22.214;2022-10-18T04:59:39;100979.53;;;13.76;56.96
21803;BME280;18591;47.080;22.214;2022-10-18T05:01:41;100976.72;;;13.79;56.89
21803;BME280;18591;47.080;22.214;2022-10-18T05:03:43;100984.78;;;13.80;56.95
21803;BME280;18591;47.080;22.214;2022-10-18T05:05:45;100983.00;;;13.79;57.21
21803;BME280;18591;47.080;22.214;2022-10-18T05:08:03;100984.78;;;13.80;57.46
21803;BME280;18591;47.080;22.214;2022-10-18T05:10:06;100976.69;;;13.80;57.32
21803;BME280;18591;47.080;22.214;2022-10-18T05:12:08;100979.44;;;13.79;57.05
21803;BME280;18591;47.080;22.214;2022-10-18T05:14:10;100992.06;;;13.78;57.05
21803;BME280;18591;47.080;22.214;2022-10-18T05:16:12;100985.81;;;13.76;57.24
21803;BME280;18591;47.080;22.214;2022-10-18T05:18:14;100982.19;;;13.77;57.42
21803;BME280;18591;47.080;22.214;2022-10-18T05:20:16;100978.50;;;13.80;57.72
21803;BME280;18591;47.080;22.214;2022-10-18T05:22:18;100972.16;;;13.81;57.67
21803;BME280;18591;47.080;22.214;2022-10-18T05:24:20;100981.16;;;13.81;57.77
21803;BME280;18591;47.080;22.214;2022-10-18T05:26:27;100977.53;;;13.82;58.07
21803;BME280;18591;47.080;22.214;2022-10-18T05:28:29;100984.78;;;13.80;58.92
21803;BME280;18591;47.080;22.214;2022-10-18T05:30:40;100981.97;;;13.85;58.68
21803;BME280;18591;47.080;22.214;2022-10-18T05:32:42;100985.47;;;13.88;59.38
21803;BME280;18591;47.080;22.214;2022-10-18T05:34:44;100987.22;;;13.89;59.48
21803;BME280;18591;47.080;22.214;2022-10-18T05:36:46;100987.16;;;13.92;59.90
21803;BME280;18591;47.080;22.214;2022-10-18T05:38:50;100984.03;;;14.06;59.33
21803;BME280;18591;47.080;22.214;2022-10-18T05:40:53;100979.28;;;14.14;59.56
21803;BME280;18591;47.080;22.214;2022-10-18T05:42:55;100980.03;;;14.20;60.63
21803;BME280;18591;47.080;22.214;2022-10-18T05:44:57;100980.78;;;14.25;60.46
21803;BME280;18591;47.080;22.214;2022-10-18T05:46:59;100979.56;;;14.35;60.21
21803;BME280;18591;47.080;22.214;2022-10-18T05:49:01;100973.97;;;14.41;61.14
21803;BME280;18591;47.080;22.214;2022-10-18T05:51:04;100976.69;;;14.41;61.45
21803;BME280;18591;47.080;22.214;2022-10-18T05:53:06;100977.38;;;14.48;60.78
21803;BME280;18591;47.080;22.214;2022-10-18T05:55:28;100981.44;;;14.63;60.11
21803;BME280;18591;47.080;22.214;2022-10-18T05:57:30;100967.53;;;14.75;60.03
21803;BME280;18591;47.080;22.214;2022-10-18T05:59:33;100972.63;;;14.84;60.16
21803;BME280;18591;47.080;22.214;2022-10-18T06:01:39;100973.19;;;14.94;60.22
21803;BME280;18591;47.080;22.214;2022-10-18T06:03:42;100974.66;;;15.04;60.15
21803;BME280;18591;47.080;22.214;2022-10-18T06:05:44;100976.97;;;15.16;59.79
21803;BME280;18591;47.080;22.214;2022-10-18T06:07:46;100974.88;;;15.24;59.85
21803;BME280;18591;47.080;22.214;2022-10-18T06:09:48;100976.28;;;15.36;59.65
21803;BME280;18591;47.080;22.214;2022-10-18T06:11:50;100972.56;;;15.39;59.93
21803;BME280;18591;47.080;22.214;2022-10-18T06:13:52;100972.22;;;15.48;59.73
21803;BME280;18591;47.080;22.214;2022-10-18T06:15:57;100968.47;;;15.52;59.53
21803;BME280;18591;47.080;22.214;2022-10-18T06:17:58;100965.91;;;15.49;59.45
21803;BME280;18591;47.080;22.214;2022-10-18T06:20:00;100974.09;;;15.46;59.60
21803;BME280;18591;47.080;22.214;2022-10-18T06:22:02;100969.53;;;15.48;59.57
21803;BME280;18591;47.080;22.214;2022-10-18T06:24:04;100975.72;;;15.52;59.85
21803;BME280;18591;47.080;22.214;2022-10-18T06:26:08;100984.78;;;15.51;59.82
21803;BME280;18591;47.080;22.214;2022-10-18T06:28:11;100979.19;;;15.55;59.59
21803;BME280;18591;47.080;22.214;2022-10-18T06:30:13;100976.25;;;15.61;59.71
21803;BME280;18591;47.080;22.214;2022-10-18T06:32:16;100980.50;;;15.70;60.16
21803;BME280;18591;47.080;22.214;2022-10-18T06:34:19;100984.69;;;15.79;60.16
21803;BME280;18591;47.080;22.214;2022-10-18T06:36:21;100980.53;;;15.94;59.76
21803;BME280;18591;47.080;22.214;2022-10-18T06:38:23;100983.97;;;15.99;59.53
21803;BME280;18591;47.080;22.214;2022-10-18T06:40:25;100988.22;;;16.06;59.54
21803;BME280;18591;47.080;22.214;2022-10-18T06:42:27;100990.72;;;16.10;59.93
21803;BME280;18591;47.080;22.214;2022-10-18T06:44:29;100981.38;;;16.19;59.29
21803;BME280;18591;47.080;22.214;2022-10-18T06:46:32;100992.69;;;16.30;59.44
21803;BME280;18591;47.080;22.214;2022-10-18T06:48:35;100989.81;;;16.35;59.18
21803;BME280;18591;47.080;22.214;2022-10-18T06:54:25;100985.31;;;16.58;59.59
21803;BME280;18591;47.080;22.214;2022-10-18T06:56:27;100992.19;;;16.66;59.32
21803;BME280;18591;47.080;22.214;2022-10-18T06:58:29;100996.78;;;16.64;60.06
21803;BME280;18591;47.080;22.214;2022-10-18T07:00:31;100991.13;;;16.70;59.17
21803;BME280;18591;47.080;22.214;2022-10-18T07:02:33;100993.38;;;16.83;59.23
21803;BME280;18591;47.080;22.214;2022-10-18T07:04:35;100995.78;;;16.90;59.15
21803;BME280;18591;47.080;22.214;2022-10-18T07:06:37;100994.50;;;16.99;59.14
21803;BME280;18591;47.080;22.214;2022-10-18T07:08:39;101001.44;;;17.06;58.88
21803;BME280;18591;47.080;22.214;2022-10-18T07:10:40;100995.59;;;17.15;59.06
21803;BME280;18591;47.080;22.214;2022-10-18T07:12:42;100994.53;;;17.19;58.96
21803;BME280;18591;47.080;22.214;2022-10-18T07:14:45;100994.41;;;17.23;58.80
21803;BME280;18591;47.080;22.214;2022-10-18T07:16:47;100989.34;;;17.35;59.11
21803;BME280;18591;47.080;22.214;2022-10-18T07:18:50;100986.34;;;17.41;59.01
21803;BME280;18591;47.080;22.214;2022-10-18T07:20:52;100988.38;;;17.57;58.66
21803;BME280;18591;47.080;22.214;2022-10-18T07:22:57;100985.56;;;17.60;59.00
21803;BME280;18591;47.080;22.214;2022-10-18T07:24:59;100990.50;;;17.71;58.50
21803;BME280;18591;47.080;22.214;2022-10-18T07:27:00;100983.91;;;17.76;58.71
21803;BME280;18591;47.080;22.214;2022-10-18T07:29:10;100977.34;;;17.82;58.50
21803;BME280;18591;47.080;22.214;2022-10-18T07:31:12;100979.50;;;17.94;58.27
21803;BME280;18591;47.080;22.214;2022-10-18T07:33:14;100985.56;;;18.01;58.41
21803;BME280;18591;47.080;22.214;2022-10-18T07:35:18;100976.28;;;18.05;58.41
21803;BME280;18591;47.080;22.214;2022-10-18T07:37:20;100972.38;;;18.11;58.48
21803;BME280;18591;47.080;22.214;2022-10-18T07:39:28;100972.78;;;18.22;58.05
21803;BME280;18591;47.080;22.214;2022-10-18T07:41:30;100979.72;;;18.29;58.00
21803;BME280;18591;47.080;22.214;2022-10-18T07:43:34;100970.38;;;18.35;57.71
21803;BME280;18591;47.080;22.214;2022-10-18T07:45:36;100974.53;;;18.42;57.75
21803;BME280;18591;47.080;22.214;2022-10-18T07:47:43;100971.38;;;18.51;57.53
21803;BME280;18591;47.080;22.214;2022-10-18T07:49:44;100970.34;;;18.54;57.54
21803;BME280;18591;47.080;22.214;2022-10-18T07:51:47;100967.09;;;18.64;57.39
21803;BME280;18591;47.080;22.214;2022-10-18T07:53:49;100965.78;;;18.73;57.22
21803;BME280;18591;47.080;22.214;2022-10-18T07:55:51;100960.13;;;18.78;57.31
21803;BME280;18591;47.080;22.214;2022-10-18T07:57:53;100961.97;;;18.77;57.31
21803;BME280;18591;47.080;22.214;2022-10-18T07:59:55;100963.50;;;18.83;56.95
21803;BME280;18591;47.080;22.214;2022-10-18T08:01:57;100963.28;;;18.87;56.55
21803;BME280;18591;47.080;22.214;2022-10-18T08:03:59;100963.06;;;18.92;56.52
21803;BME280;18591;47.080;22.214;2022-10-18T08:06:10;100964.41;;;19.01;56.34
21803;BME280;18591;47.080;22.214;2022-10-18T08:08:13;100971.97;;;19.13;55.91
21803;BME280;18591;47.080;22.214;2022-10-18T08:10:15;100969.81;;;19.20;55.17
21803;BME280;18591;47.080;22.214;2022-10-18T08:12:17;100964.94;;;19.26;55.19
21803;BME280;18591;47.080;22.214;2022-10-18T08:14:19;100966.16;;;19.38;55.29
21803;BME280;18591;47.080;22.214;2022-10-18T08:16:26;100962.03;;;19.47;55.01
21803;BME280;18591;47.080;22.214;2022-10-18T08:18:29;100957.00;;;19.56;55.58
21803;BME280;18591;47.080;22.214;2022-10-18T08:20:32;100953.97;;;19.63;55.41
21803;BME280;18591;47.080;22.214;2022-10-18T08:22:34;100954.53;;;19.69;55.55
21803;BME280;18591;47.080;22.214;2022-10-18T08:24:36;100947.84;;;19.75;54.74
21803;BME280;18591;47.080;22.214;2022-10-18T08:26:38;100948.31;;;19.83;54.17
21803;BME280;18591;47.080;22.214;2022-10-18T08:28:40;100954.09;;;19.94;54.52
21803;BME280;18591;47.080;22.214;2022-10-18T08:30:54;100940.81;;;20.04;53.32
21803;BME280;18591;47.080;22.214;2022-10-18T08:32:56;100941.34;;;20.11;53.58
21803;BME280;18591;47.080;22.214;2022-10-18T08:34:59;100939.34;;;20.14;53.46
21803;BME280;18591;47.080;22.214;2022-10-18T08:37:04;100939.00;;;20.20;53.66
21803;BME280;18591;47.080;22.214;2022-10-18T08:39:07;100934.78;;;20.31;53.67
21803;BME280;18591;47.080;22.214;2022-10-18T08:43:33;100933.53;;;20.36;52.22
21803;BME280;18591;47.080;22.214;2022-10-18T08:45:39;100934.44;;;20.53;52.74
21803;BME280;18591;47.080;22.214;2022-10-18T08:47:45;100922.50;;;20.55;52.34
21803;BME280;18591;47.080;22.214;2022-10-18T08:50:00;100930.50;;;20.58;51.27
21803;BME280;18591;47.080;22.214;2022-10-18T08:52:22;100923.56;;;20.69;50.62
21803;BME280;18591;47.080;22.214;2022-10-18T08:54:51;100921.44;;;20.74;50.92
21803;BME280;18591;47.080;22.214;2022-10-18T08:57:03;100912.00;;;20.79;50.62
21803;BME280;18591;47.080;22.214;2022-10-18T08:59:11;100909.78;;;20.86;49.96
21803;BME280;18591;47.080;22.214;2022-10-18T09:05:55;100919.09;;;20.98;49.13
21803;BME280;18591;47.080;22.214;2022-10-18T09:08:21;100915.38;;;20.99;50.21
21803;BME280;18591;47.080;22.214;2022-10-18T09:10:52;100915.47;;;20.97;48.43
21803;BME280;18591;47.080;22.214;2022-10-18T09:15:54;100909.78;;;21.16;50.11
21803;BME280;18591;47.080;22.214;2022-10-18T09:20:24;100913.63;;;21.28;50.79
21803;BME280;18591;47.080;22.214;2022-10-18T09:22:51;100906.97;;;21.32;48.02
21803;BME280;18591;47.080;22.214;2022-10-18T09:25:05;100896.41;;;21.42;48.18
21803;BME280;18591;47.080;22.214;2022-10-18T09:27:16;100894.06;;;21.50;47.71
21803;BME280;18591;47.080;22.214;2022-10-18T09:29:39;100898.28;;;21.56;47.51
21803;BME280;18591;47.080;22.214;2022-10-18T09:31:58;100897.91;;;21.62;48.14
21803;BME280;18591;47.080;22.214;2022-10-18T09:34:22;100892.22;;;21.65;47.30
21803;BME280;18591;47.080;22.214;2022-10-18T09:36:33;100895.75;;;21.67;49.13
21803;BME280;18591;47.080;22.214;2022-10-18T09:38:47;100885.81;;;21.66;48.03
21803;BME280;18591;47.080;22.214;2022-10-18T09:41:01;100881.69;;;21.73;48.81
21803;BME280;18591;47.080;22.214;2022-10-18T09:43:09;100886.00;;;21.77;48.84
21803;BME280;18591;47.080;22.214;2022-10-18T09:47:23;100881.78;;;21.86;49.41
21803;BME280;18591;47.080;22.214;2022-10-18T09:49:37;100882.56;;;21.88;48.24
21803;BME280;18591;47.080;22.214;2022-10-18T09:51:41;100882.66;;;22.01;48.42
21803;BME280;18591;47.080;22.214;2022-10-18T09:56:15;100881.78;;;22.00;46.89
21803;BME280;18591;47.080;22.214;2022-10-18T09:58:19;100870.13;;;22.11;47.90
21803;BME280;18591;47.080;22.214;2022-10-18T10:00:28;100870.84;;;22.14;46.50
21803;BME280;18591;47.080;22.214;2022-10-18T10:02:32;100863.28;;;22.18;47.54
21803;BME280;18591;47.080;22.214;2022-10-18T10:04:34;100866.34;;;22.28;47.82
21803;BME280;18591;47.080;22.214;2022-10-18T10:06:36;100856.13;;;22.30;48.24
21803;BME280;18591;47.080;22.214;2022-10-18T10:08:41;100856.06;;;22.31;48.33
21803;BME280;18591;47.080;22.214;2022-10-18T10:10:45;100850.47;;;22.33;47.94
21803;BME280;18591;47.080;22.214;2022-10-18T10:13:02;100847.84;;;22.31;46.83
21803;BME280;18591;47.080;22.214;2022-10-18T10:15:21;100848.50;;;22.35;47.11
21803;BME280;18591;47.080;22.214;2022-10-18T10:17:32;100844.00;;;22.34;47.67
21803;BME280;18591;47.080;22.214;2022-10-18T10:22:15;100830.59;;;22.44;47.38
21803;BME280;18591;47.080;22.214;2022-10-18T10:26:46;100821.75;;;22.53;48.06
21803;BME280;18591;47.080;22.214;2022-10-18T10:28:49;100823.28;;;22.57;47.48
21803;BME280;18591;47.080;22.214;2022-10-18T10:30:51;100816.72;;;22.59;47.62
21803;BME280;18591;47.080;22.214;2022-10-18T10:32:54;100817.31;;;22.65;47.65
21803;BME280;18591;47.080;22.214;2022-10-18T10:34:57;100805.34;;;22.66;47.92
21803;BME280;18591;47.080;22.214;2022-10-18T10:36:59;100806.91;;;22.70;48.64
21803;BME280;18591;47.080;22.214;2022-10-18T10:39:10;100805.16;;;22.69;47.95
21803;BME280;18591;47.080;22.214;2022-10-18T10:41:20;100795.63;;;22.74;48.31
21803;BME280;18591;47.080;22.214;2022-10-18T10:43:54;100794.53;;;22.77;48.09
21803;BME280;18591;47.080;22.214;2022-10-18T10:48:15;100784.03;;;22.83;48.02
21803;BME280;18591;47.080;22.214;2022-10-18T10:50:25;100782.94;;;22.86;47.48
21803;BME280;18591;47.080;22.214;2022-10-18T10:52:28;100786.03;;;22.94;47.53
21803;BME280;18591;47.080;22.214;2022-10-18T10:54:30;100776.63;;;22.98;48.11
21803;BME280;18591;47.080;22.214;2022-10-18T10:59:31;100768.09;;;23.03;47.30
21803;BME280;18591;47.080;22.214;2022-10-18T11:01:39;100774.13;;;23.08;47.21
21803;BME280;18591;47.080;22.214;2022-10-18T11:03:46;100769.41;;;23.10;47.18
21803;BME280;18591;47.080;22.214;2022-10-18T11:11:27;100754.94;;;23.21;45.51
21803;BME280;18591;47.080;22.214;2022-10-18T11:16:08;100758.13;;;23.28;45.93
21803;BME280;18591;47.080;22.214;2022-10-18T11:18:24;100749.22;;;23.24;45.22
21803;BME280;18591;47.080;22.214;2022-10-18T11:20:36;100744.97;;;23.33;45.00
21803;BME280;18591;47.080;22.214;2022-10-18T11:22:59;100740.13;;;23.36;45.40
21803;BME280;18591;47.080;22.214;2022-10-18T11:33:28;100720.69;;;23.39;43.89
21803;BME280;18591;47.080;22.214;2022-10-18T11:36:03;100717.53;;;23.45;44.39
21803;BME280;18591;47.080;22.214;2022-10-18T11:45:42;100705.09;;;23.53;43.83
21803;BME280;18591;47.080;22.214;2022-10-18T11:55:55;100685.97;;;23.64;42.92
21803;BME280;18591;47.080;22.214;2022-10-18T12:01:38;100674.09;;;23.76;44.19
21803;BME280;18591;47.080;22.214;2022-10-18T12:03:52;100672.00;;;23.80;43.89
21803;BME280;18591;47.080;22.214;2022-10-18T12:06:01;100677.25;;;23.83;43.40
21803;BME280;18591;47.080;22.214;2022-10-18T12:08:08;100662.53;;;23.84;43.01
21803;BME280;18591;47.080;22.214;2022-10-18T12:10:37;100662.44;;;23.85;42.62
21803;BME280;18591;47.080;22.214;2022-10-18T12:13:04;100657.38;;;23.92;43.34
21803;BME280;18591;47.080;22.214;2022-10-18T12:15:19;100650.88;;;23.93;42.73
21803;BME280;18591;47.080;22.214;2022-10-18T12:17:41;100648.75;;;23.97;41.67
21803;BME280;18591;47.080;22.214;2022-10-18T12:19:52;100637.66;;;23.98;43.66
21803;BME280;18591;47.080;22.214;2022-10-18T12:22:04;100638.88;;;23.94;43.34
21803;BME280;18591;47.080;22.214;2022-10-18T12:24:15;100646.00;;;23.97;43.91
21803;BME280;18591;47.080;22.214;2022-10-18T12:26:20;100638.44;;;24.00;43.49
21803;BME280;18591;47.080;22.214;2022-10-18T12:28:34;100630.19;;;24.00;42.43
21803;BME280;18591;47.080;22.214;2022-10-18T12:30:49;100633.72;;;24.02;42.46